sensor_id;sensor_type;location;lat;lon;timestamp;temperature;humidity
29539;DHT22;16482;51.046;4.498;2022-07-26T00:02:11;26.30;46.50
29539;DHT22;16482;51.046;4.498;2022-07-26T00:04:46;26.30;46.50
29539;DHT22;16482;51.046;4.498;2022-07-26T00:07:11;26.30;46.50
29539;DHT22;16482;51.046;4.498;2022-07-26T00:09:45;26.30;46.50
29539;DHT22;16482;51.046;4.498;2022-07-26T00:12:11;26.30;46.60
29539;DHT22;16482;51.046;4.498;2022-07-26T00:14:46;26.30;47.20
29539;DHT22;16482;51.046;4.498;2022-07-26T00:17:12;26.30;46.60
29539;DHT22;16482;51.046;4.498;2022-07-26T00:19:40;26.30;46.60
29539;DHT22;16482;51.046;4.498;2022-07-26T00:22:14;26.20;46.60
29539;DHT22;16482;51.046;4.498;2022-07-26T00:24:59;26.30;46.60
29539;DHT22;16482;51.046;4.498;2022-07-26T00:27:25;26.20;46.70
29539;DHT22;16482;51.046;4.498;2022-07-26T00:29:51;26.30;46.70
29539;DHT22;16482;51.046;4.498;2022-07-26T00:32:17;26.20;46.70
29539;DHT22;16482;51.046;4.498;2022-07-26T00:34:43;26.20;46.70
29539;DHT22;16482;51.046;4.498;2022-07-26T00:37:08;26.20;46.80
29539;DHT22;16482;51.046;4.498;2022-07-26T00:39:42;26.20;46.80
29539;DHT22;16482;51.046;4.498;2022-07-26T00:42:11;26.20;46.90
29539;DHT22;16482;51.046;4.498;2022-07-26T00:44:42;26.20;46.90
29539;DHT22;16482;51.046;4.498;2022-07-26T00:47:11;26.20;46.90
29539;DHT22;16482;51.046;4.498;2022-07-26T00:49:45;26.20;46.90
29539;DHT22;16482;51.046;4.498;2022-07-26T00:52:13;26.20;46.90
29539;DHT22;16482;51.046;4.498;2022-07-26T00:54:41;26.20;46.90
29539;DHT22;16482;51.046;4.498;2022-07-26T00:57:12;26.20;46.90
29539;DHT22;16482;51.046;4.498;2022-07-26T00:59:42;26.20;46.90
29539;DHT22;16482;51.046;4.498;2022-07-26T01:02:11;26.20;47.00
29539;DHT22;16482;51.046;4.498;2022-07-26T01:04:40;26.20;47.00
29539;DHT22;16482;51.046;4.498;2022-07-26T01:07:10;26.20;47.00
29539;DHT22;16482;51.046;4.498;2022-07-26T01:09:40;26.20;47.10
29539;DHT22;16482;51.046;4.498;2022-07-26T01:12:13;26.10;47.10
29539;DHT22;16482;51.046;4.498;2022-07-26T01:14:41;26.20;47.20
29539;DHT22;16482;51.046;4.498;2022-07-26T01:17:09;26.20;47.20
29539;DHT22;16482;51.046;4.498;2022-07-26T01:19:42;26.20;47.30
29539;DHT22;16482;51.046;4.498;2022-07-26T01:22:11;26.20;47.40
29539;DHT22;16482;51.046;4.498;2022-07-26T01:24:44;26.10;47.40
29539;DHT22;16482;51.046;4.498;2022-07-26T01:27:13;26.20;47.40
29539;DHT22;16482;51.046;4.498;2022-07-26T01:29:41;26.20;47.50
29539;DHT22;16482;51.046;4.498;2022-07-26T01:32:18;26.20;47.40
29539;DHT22;16482;51.046;4.498;2022-07-26T01:34:44;26.10;47.50
29539;DHT22;16482;51.046;4.498;2022-07-26T01:37:12;26.20;47.60
29539;DHT22;16482;51.046;4.498;2022-07-26T01:39:41;26.20;47.70
29539;DHT22;16482;51.046;4.498;2022-07-26T01:42:11;26.20;47.70
29539;DHT22;16482;51.046;4.498;2022-07-26T01:44:44;26.20;47.60
29539;DHT22;16482;51.046;4.498;2022-07-26T01:47:10;26.10;47.70
29539;DHT22;16482;51.046;4.498;2022-07-26T01:49:45;26.10;47.80
29539;DHT22;16482;51.046;4.498;2022-07-26T01:52:11;26.20;47.90
29539;DHT22;16482;51.046;4.498;2022-07-26T01:54:37;26.10;47.90
29539;DHT22;16482;51.046;4.498;2022-07-26T01:57:11;26.20;48.10
29539;DHT22;16482;51.046;4.498;2022-07-26T01:59:40;26.20;48.00
29539;DHT22;16482;51.046;4.498;2022-07-26T02:02:14;26.20;48.10
29539;DHT22;16482;51.046;4.498;2022-07-26T02:04:40;26.10;48.10
29539;DHT22;16482;51.046;4.498;2022-07-26T02:07:29;26.20;48.20
29539;DHT22;16482;51.046;4.498;2022-07-26T02:09:56;26.10;48.30
29539;DHT22;16482;51.046;4.498;2022-07-26T02:12:22;26.10;48.30
29539;DHT22;16482;51.046;4.498;2022-07-26T02:14:48;26.10;48.30
29539;DHT22;16482;51.046;4.498;2022-07-26T02:17:14;26.10;48.40
29539;DHT22;16482;51.046;4.498;2022-07-26T02:19:43;26.10;48.50
29539;DHT22;16482;51.046;4.498;2022-07-26T02:22:08;26.10;48.60
29539;DHT22;16482;51.046;4.498;2022-07-26T02:24:42;26.10;48.70
29539;DHT22;16482;51.046;4.498;2022-07-26T02:27:08;26.10;48.70
29539;DHT22;16482;51.046;4.498;2022-07-26T02:29:36;26.10;48.70
29539;DHT22;16482;51.046;4.498;2022-07-26T02:32:02;26.10;48.70
29539;DHT22;16482;51.046;4.498;2022-07-26T02:34:31;26.10;48.70
29539;DHT22;16482;51.046;4.498;2022-07-26T02:36:57;26.10;48.80
29539;DHT22;16482;51.046;4.498;2022-07-26T02:39:23;26.10;48.80
29539;DHT22;16482;51.046;4.498;2022-07-26T02:41:56;26.10;48.80
29539;DHT22;16482;51.046;4.498;2022-07-26T02:44:23;26.20;48.90
29539;DHT22;16482;51.046;4.498;2022-07-26T02:46:50;26.10;48.80
29539;DHT22;16482;51.046;4.498;2022-07-26T02:49:16;26.10;48.90
29539;DHT22;16482;51.046;4.498;2022-07-26T02:51:42;26.10;48.90
29539;DHT22;16482;51.046;4.498;2022-07-26T02:54:08;26.10;49.00
29539;DHT22;16482;51.046;4.498;2022-07-26T02:56:34;26.10;49.00
29539;DHT22;16482;51.046;4.498;2022-07-26T02:59:00;26.10;49.00
29539;DHT22;16482;51.046;4.498;2022-07-26T03:01:25;26.10;49.10
29539;DHT22;16482;51.046;4.498;2022-07-26T03:03:51;26.10;49.10
29539;DHT22;16482;51.046;4.498;2022-07-26T03:06:20;26.10;49.10
29539;DHT22;16482;51.046;4.498;2022-07-26T03:08:55;26.10;49.00
29539;DHT22;16482;51.046;4.498;2022-07-26T03:11:21;26.10;49.10
29539;DHT22;16482;51.046;4.498;2022-07-26T03:13:50;26.10;49.20
29539;DHT22;16482;51.046;4.498;2022-07-26T03:16:20;26.10;49.20
29539;DHT22;16482;51.046;4.498;2022-07-26T03:18:55;26.10;49.30
29539;DHT22;16482;51.046;4.498;2022-07-26T03:21:21;26.10;49.10
29539;DHT22;16482;51.046;4.498;2022-07-26T03:23:50;26.10;49.10
29539;DHT22;16482;51.046;4.498;2022-07-26T03:26:24;26.10;49.20
29539;DHT22;16482;51.046;4.498;2022-07-26T03:28:52;26.10;49.20
29539;DHT22;16482;51.046;4.498;2022-07-26T03:31:21;26.10;49.30
29539;DHT22;16482;51.046;4.498;2022-07-26T03:33:57;26.10;49.40
29539;DHT22;16482;51.046;4.498;2022-07-26T03:36:23;26.10;49.30
29539;DHT22;16482;51.046;4.498;2022-07-26T03:38:51;26.10;49.40
29539;DHT22;16482;51.046;4.498;2022-07-26T03:41:19;26.10;49.50
29539;DHT22;16482;51.046;4.498;2022-07-26T03:43:54;26.10;49.50
29539;DHT22;16482;51.046;4.498;2022-07-26T03:46:19;26.10;49.40
29539;DHT22;16482;51.046;4.498;2022-07-26T03:48:53;26.10;49.50
29539;DHT22;16482;51.046;4.498;2022-07-26T03:51:21;26.10;49.60
29539;DHT22;16482;51.046;4.498;2022-07-26T03:53:50;26.10;49.50
29539;DHT22;16482;51.046;4.498;2022-07-26T03:56:19;26.10;49.60
29539;DHT22;16482;51.046;4.498;2022-07-26T03:58:57;26.10;49.60
29539;DHT22;16482;51.046;4.498;2022-07-26T04:01:24;26.10;49.60
29539;DHT22;16482;51.046;4.498;2022-07-26T04:03:50;26.10;49.60
29539;DHT22;16482;51.046;4.498;2022-07-26T04:06:25;26.10;49.60
29539;DHT22;16482;51.046;4.498;2022-07-26T04:08:52;26.10;49.60
29539;DHT22;16482;51.046;4.498;2022-07-26T04:11:27;26.10;49.70
29539;DHT22;16482;51.046;4.498;2022-07-26T04:13:53;26.10;49.70
29539;DHT22;16482;51.046;4.498;2022-07-26T04:16:34;26.10;49.80
29539;DHT22;16482;51.046;4.498;2022-07-26T04:19:00;26.10;49.90
29539;DHT22;16482;51.046;4.498;2022-07-26T04:21:26;26.00;49.80
29539;DHT22;16482;51.046;4.498;2022-07-26T04:23:52;26.00;49.90
29539;DHT22;16482;51.046;4.498;2022-07-26T04:26:20;26.10;50.00
29539;DHT22;16482;51.046;4.498;2022-07-26T04:28:49;26.10;49.90
29539;DHT22;16482;51.046;4.498;2022-07-26T04:31:22;26.00;49.90
29539;DHT22;16482;51.046;4.498;2022-07-26T04:33:48;26.00;49.80
29539;DHT22;16482;51.046;4.498;2022-07-26T04:36:14;26.10;49.90
29539;DHT22;16482;51.046;4.498;2022-07-26T04:38:40;26.00;49.90
29539;DHT22;16482;51.046;4.498;2022-07-26T04:41:06;26.10;50.60
29539;DHT22;16482;51.046;4.498;2022-07-26T04:43:32;26.00;50.00
29539;DHT22;16482;51.046;4.498;2022-07-26T04:45:58;26.00;50.00
29539;DHT22;16482;51.046;4.498;2022-07-26T04:48:25;26.00;50.00
29539;DHT22;16482;51.046;4.498;2022-07-26T04:50:51;26.00;50.00
29539;DHT22;16482;51.046;4.498;2022-07-26T04:53:17;26.10;50.00
29539;DHT22;16482;51.046;4.498;2022-07-26T04:55:45;26.10;49.90
29539;DHT22;16482;51.046;4.498;2022-07-26T04:58:12;26.10;50.00
29539;DHT22;16482;51.046;4.498;2022-07-26T05:00:38;26.10;50.00
29539;DHT22;16482;51.046;4.498;2022-07-26T05:03:04;26.10;50.00
29539;DHT22;16482;51.046;4.498;2022-07-26T05:05:32;26.10;50.00
29539;DHT22;16482;51.046;4.498;2022-07-26T05:08:02;26.10;50.10
29539;DHT22;16482;51.046;4.498;2022-07-26T05:10:37;26.10;50.00
29539;DHT22;16482;51.046;4.498;2022-07-26T05:13:04;26.10;50.00
29539;DHT22;16482;51.046;4.498;2022-07-26T05:15:31;26.00;50.00
29539;DHT22;16482;51.046;4.498;2022-07-26T05:18:03;26.00;50.30
29539;DHT22;16482;51.046;4.498;2022-07-26T05:20:29;26.00;50.40
29539;DHT22;16482;51.046;4.498;2022-07-26T05:23:01;26.00;51.10
29539;DHT22;16482;51.046;4.498;2022-07-26T05:25:27;26.00;50.60
29539;DHT22;16482;51.046;4.498;2022-07-26T05:28:00;26.00;50.70
29539;DHT22;16482;51.046;4.498;2022-07-26T05:30:34;26.00;50.70
29539;DHT22;16482;51.046;4.498;2022-07-26T05:33:02;26.00;50.70
29539;DHT22;16482;51.046;4.498;2022-07-26T05:35:28;26.00;50.80
29539;DHT22;16482;51.046;4.498;2022-07-26T05:37:56;26.00;50.90
29539;DHT22;16482;51.046;4.498;2022-07-26T05:40:22;26.00;50.90
29539;DHT22;16482;51.046;4.498;2022-07-26T05:42:48;26.00;50.90
29539;DHT22;16482;51.046;4.498;2022-07-26T05:45:14;26.00;50.90
29539;DHT22;16482;51.046;4.498;2022-07-26T05:47:40;26.00;51.10
29539;DHT22;16482;51.046;4.498;2022-07-26T05:50:06;26.00;51.10
29539;DHT22;16482;51.046;4.498;2022-07-26T05:52:32;26.00;51.10
29539;DHT22;16482;51.046;4.498;2022-07-26T05:54:58;26.00;51.10
29539;DHT22;16482;51.046;4.498;2022-07-26T05:57:23;25.90;51.10
29539;DHT22;16482;51.046;4.498;2022-07-26T05:59:49;25.90;51.20
29539;DHT22;16482;51.046;4.498;2022-07-26T06:02:15;25.90;51.30
29539;DHT22;16482;51.046;4.498;2022-07-26T06:04:41;26.00;51.30
29539;DHT22;16482;51.046;4.498;2022-07-26T06:07:10;26.00;51.20
29539;DHT22;16482;51.046;4.498;2022-07-26T06:09:45;26.00;51.30
29539;DHT22;16482;51.046;4.498;2022-07-26T06:12:13;25.90;51.30
29539;DHT22;16482;51.046;4.498;2022-07-26T06:14:41;26.00;51.40
29539;DHT22;16482;51.046;4.498;2022-07-26T06:17:07;26.00;51.40
29539;DHT22;16482;51.046;4.498;2022-07-26T06:19:42;26.00;51.40
29539;DHT22;16482;51.046;4.498;2022-07-26T06:22:08;26.00;51.50
29539;DHT22;16482;51.046;4.498;2022-07-26T06:24:41;25.90;51.50
29539;DHT22;16482;51.046;4.498;2022-07-26T06:27:16;26.00;51.80
29539;DHT22;16482;51.046;4.498;2022-07-26T06:29:42;25.90;51.80
29539;DHT22;16482;51.046;4.498;2022-07-26T06:32:08;25.90;51.70
29539;DHT22;16482;51.046;4.498;2022-07-26T06:34:42;25.90;51.60
29539;DHT22;16482;51.046;4.498;2022-07-26T06:37:13;26.00;51.50
29539;DHT22;16482;51.046;4.498;2022-07-26T06:39:41;25.90;51.50
29539;DHT22;16482;51.046;4.498;2022-07-26T06:42:14;26.00;51.50
29539;DHT22;16482;51.046;4.498;2022-07-26T06:44:43;25.90;51.40
29539;DHT22;16482;51.046;4.498;2022-07-26T06:47:14;26.00;51.30
29539;DHT22;16482;51.046;4.498;2022-07-26T06:49:43;26.00;51.30
29539;DHT22;16482;51.046;4.498;2022-07-26T06:52:12;26.00;51.20
29539;DHT22;16482;51.046;4.498;2022-07-26T06:54:46;26.00;51.00
29539;DHT22;16482;51.046;4.498;2022-07-26T06:57:12;26.10;50.80
29539;DHT22;16482;51.046;4.498;2022-07-26T06:59:40;26.10;50.70
29539;DHT22;16482;51.046;4.498;2022-07-26T07:02:15;26.10;50.60
29539;DHT22;16482;51.046;4.498;2022-07-26T07:04:41;26.10;50.50
29539;DHT22;16482;51.046;4.498;2022-07-26T07:07:14;26.10;50.40
29539;DHT22;16482;51.046;4.498;2022-07-26T07:09:43;26.10;50.10
29539;DHT22;16482;51.046;4.498;2022-07-26T07:12:11;26.20;50.10
29539;DHT22;16482;51.046;4.498;2022-07-26T07:14:42;26.10;49.90
29539;DHT22;16482;51.046;4.498;2022-07-26T07:17:08;26.10;49.80
29539;DHT22;16482;51.046;4.498;2022-07-26T07:19:41;26.10;49.80
29539;DHT22;16482;51.046;4.498;2022-07-26T07:22:07;26.10;49.80
29539;DHT22;16482;51.046;4.498;2022-07-26T07:24:43;26.10;49.90
29539;DHT22;16482;51.046;4.498;2022-07-26T07:27:09;26.10;49.90
29539;DHT22;16482;51.046;4.498;2022-07-26T07:29:38;26.10;50.00
29539;DHT22;16482;51.046;4.498;2022-07-26T07:32:13;26.10;49.90
29539;DHT22;16482;51.046;4.498;2022-07-26T07:34:41;26.10;50.00
29539;DHT22;16482;51.046;4.498;2022-07-26T07:37:11;26.10;49.90
29539;DHT22;16482;51.046;4.498;2022-07-26T07:39:44;26.10;50.10
29539;DHT22;16482;51.046;4.498;2022-07-26T07:42:10;26.10;50.80
29539;DHT22;16482;51.046;4.498;2022-07-26T07:44:45;26.10;50.20
29539;DHT22;16482;51.046;4.498;2022-07-26T07:47:11;26.10;50.20
29539;DHT22;16482;51.046;4.498;2022-07-26T07:49:38;26.10;50.00
29539;DHT22;16482;51.046;4.498;2022-07-26T07:52:24;26.10;50.10
29539;DHT22;16482;51.046;4.498;2022-07-26T07:54:50;26.10;50.00
29539;DHT22;16482;51.046;4.498;2022-07-26T07:57:16;26.10;50.00
29539;DHT22;16482;51.046;4.498;2022-07-26T07:59:45;26.20;49.90
29539;DHT22;16482;51.046;4.498;2022-07-26T08:02:11;26.20;49.70
29539;DHT22;16482;51.046;4.498;2022-07-26T08:04:39;26.20;49.60
29539;DHT22;16482;51.046;4.498;2022-07-26T08:07:07;26.20;49.50
29539;DHT22;16482;51.046;4.498;2022-07-26T08:09:33;26.20;49.40
29539;DHT22;16482;51.046;4.498;2022-07-26T08:12:13;26.20;49.30
29539;DHT22;16482;51.046;4.498;2022-07-26T08:14:41;26.30;49.20
29539;DHT22;16482;51.046;4.498;2022-07-26T08:17:16;26.30;49.10
29539;DHT22;16482;51.046;4.498;2022-07-26T08:19:42;26.30;49.00
29539;DHT22;16482;51.046;4.498;2022-07-26T08:22:11;26.30;49.00
29539;DHT22;16482;51.046;4.498;2022-07-26T08:24:44;26.30;49.00
29539;DHT22;16482;51.046;4.498;2022-07-26T08:27:12;26.30;48.90
29539;DHT22;16482;51.046;4.498;2022-07-26T08:29:45;26.30;48.90
29539;DHT22;16482;51.046;4.498;2022-07-26T08:32:14;26.30;48.80
29539;DHT22;16482;51.046;4.498;2022-07-26T08:34:40;26.30;48.80
29539;DHT22;16482;51.046;4.498;2022-07-26T08:37:13;26.30;48.60
29539;DHT22;16482;51.046;4.498;2022-07-26T08:39:42;26.40;48.60
29539;DHT22;16482;51.046;4.498;2022-07-26T08:42:19;26.40;48.40
29539;DHT22;16482;51.046;4.498;2022-07-26T08:44:48;26.40;48.50
29539;DHT22;16482;51.046;4.498;2022-07-26T08:47:21;26.40;48.20
29539;DHT22;16482;51.046;4.498;2022-07-26T08:49:48;26.40;48.80
29539;DHT22;16482;51.046;4.498;2022-07-26T08:52:14;26.40;48.10
29539;DHT22;16482;51.046;4.498;2022-07-26T08:54:49;26.40;48.00
29539;DHT22;16482;51.046;4.498;2022-07-26T08:57:16;26.50;47.90
29539;DHT22;16482;51.046;4.498;2022-07-26T08:59:42;26.50;47.90
29539;DHT22;16482;51.046;4.498;2022-07-26T09:02:12;26.50;47.70
29539;DHT22;16482;51.046;4.498;2022-07-26T09:04:42;26.50;47.60
29539;DHT22;16482;51.046;4.498;2022-07-26T09:07:14;26.50;47.60
29539;DHT22;16482;51.046;4.498;2022-07-26T09:10:02;26.60;47.50
29539;DHT22;16482;51.046;4.498;2022-07-26T09:12:29;26.60;47.20
29539;DHT22;16482;51.046;4.498;2022-07-26T09:14:56;26.60;47.00
29539;DHT22;16482;51.046;4.498;2022-07-26T09:17:24;26.70;46.90
29539;DHT22;16482;51.046;4.498;2022-07-26T09:20:06;26.70;46.80
29539;DHT22;16482;51.046;4.498;2022-07-26T09:22:34;26.70;46.70
29539;DHT22;16482;51.046;4.498;2022-07-26T09:25:00;26.70;46.50
29539;DHT22;16482;51.046;4.498;2022-07-26T09:27:33;26.70;46.40
29539;DHT22;16482;51.046;4.498;2022-07-26T09:30:07;26.70;46.10
29539;DHT22;16482;51.046;4.498;2022-07-26T09:32:33;26.70;46.10
29539;DHT22;16482;51.046;4.498;2022-07-26T09:35:14;26.80;46.10
29539;DHT22;16482;51.046;4.498;2022-07-26T09:37:46;26.70;46.10
29539;DHT22;16482;51.046;4.498;2022-07-26T09:40:17;26.70;46.10
29539;DHT22;16482;51.046;4.498;2022-07-26T09:45:36;26.70;46.20
29539;DHT22;16482;51.046;4.498;2022-07-26T09:48:03;26.70;46.10
29539;DHT22;16482;51.046;4.498;2022-07-26T09:50:32;26.70;46.00
29539;DHT22;16482;51.046;4.498;2022-07-26T09:53:12;26.70;45.90
29539;DHT22;16482;51.046;4.498;2022-07-26T09:58:15;26.60;45.80
29539;DHT22;16482;51.046;4.498;2022-07-26T10:00:43;26.60;45.80
29539;DHT22;16482;51.046;4.498;2022-07-26T10:03:10;26.60;45.80
29539;DHT22;16482;51.046;4.498;2022-07-26T10:05:39;26.60;45.80
29539;DHT22;16482;51.046;4.498;2022-07-26T10:08:05;26.60;45.70
29539;DHT22;16482;51.046;4.498;2022-07-26T10:13:07;26.60;45.60
29539;DHT22;16482;51.046;4.498;2022-07-26T10:15:39;26.60;45.60
29539;DHT22;16482;51.046;4.498;2022-07-26T10:18:07;26.60;46.20
29539;DHT22;16482;51.046;4.498;2022-07-26T10:20:45;26.60;45.70
29539;DHT22;16482;51.046;4.498;2022-07-26T10:23:34;26.60;45.70
29539;DHT22;16482;51.046;4.498;2022-07-26T10:26:01;26.60;45.70
29539;DHT22;16482;51.046;4.498;2022-07-26T10:28:29;26.60;45.90
29539;DHT22;16482;51.046;4.498;2022-07-26T10:31:26;26.60;46.10
29539;DHT22;16482;51.046;4.498;2022-07-26T10:33:57;26.60;46.30
29539;DHT22;16482;51.046;4.498;2022-07-26T10:36:26;26.50;46.60
29539;DHT22;16482;51.046;4.498;2022-07-26T10:39:01;26.50;46.80
29539;DHT22;16482;51.046;4.498;2022-07-26T10:41:36;26.50;47.10
29539;DHT22;16482;51.046;4.498;2022-07-26T10:44:26;26.50;47.60
29539;DHT22;16482;51.046;4.498;2022-07-26T10:47:11;26.50;47.80
29539;DHT22;16482;51.046;4.498;2022-07-26T10:49:55;26.60;47.80
29539;DHT22;16482;51.046;4.498;2022-07-26T10:52:27;26.60;48.10
29539;DHT22;16482;51.046;4.498;2022-07-26T10:57:32;26.60;48.20
29539;DHT22;16482;51.046;4.498;2022-07-26T10:59:59;26.60;48.00
29539;DHT22;16482;51.046;4.498;2022-07-26T11:02:30;26.60;48.00
29539;DHT22;16482;51.046;4.498;2022-07-26T11:05:01;26.60;47.80
29539;DHT22;16482;51.046;4.498;2022-07-26T11:07:28;26.70;47.70
29539;DHT22;16482;51.046;4.498;2022-07-26T11:09:56;26.60;47.50
29539;DHT22;16482;51.046;4.498;2022-07-26T11:12:23;26.70;47.50
29539;DHT22;16482;51.046;4.498;2022-07-26T11:14:49;26.60;47.40
29539;DHT22;16482;51.046;4.498;2022-07-26T11:17:30;26.60;47.40
29539;DHT22;16482;51.046;4.498;2022-07-26T11:19:56;26.70;47.40
29539;DHT22;16482;51.046;4.498;2022-07-26T11:22:31;26.70;47.40
29539;DHT22;16482;51.046;4.498;2022-07-26T11:24:57;26.70;47.40
29539;DHT22;16482;51.046;4.498;2022-07-26T11:27:23;26.70;47.30
29539;DHT22;16482;51.046;4.498;2022-07-26T11:29:49;26.70;47.30
29539;DHT22;16482;51.046;4.498;2022-07-26T11:32:20;26.70;47.20
29539;DHT22;16482;51.046;4.498;2022-07-26T11:34:46;26.70;47.10
29539;DHT22;16482;51.046;4.498;2022-07-26T11:37:21;26.70;47.00
29539;DHT22;16482;51.046;4.498;2022-07-26T11:39:47;26.70;47.00
29539;DHT22;16482;51.046;4.498;2022-07-26T11:42:13;26.70;47.00
29539;DHT22;16482;51.046;4.498;2022-07-26T11:44:46;26.70;46.90
29539;DHT22;16482;51.046;4.498;2022-07-26T11:47:17;26.70;46.80
29539;DHT22;16482;51.046;4.498;2022-07-26T11:49:45;26.70;47.00
29539;DHT22;16482;51.046;4.498;2022-07-26T11:52:12;26.70;47.00
29539;DHT22;16482;51.046;4.498;2022-07-26T11:54:45;26.70;47.10
29539;DHT22;16482;51.046;4.498;2022-07-26T11:57:11;26.70;47.10
29539;DHT22;16482;51.046;4.498;2022-07-26T11:59:47;26.70;47.10
29539;DHT22;16482;51.046;4.498;2022-07-26T12:02:14;26.70;47.00
29539;DHT22;16482;51.046;4.498;2022-07-26T12:04:43;26.80;47.10
29539;DHT22;16482;51.046;4.498;2022-07-26T12:07:14;26.70;47.10
29539;DHT22;16482;51.046;4.498;2022-07-26T12:09:47;26.80;47.20
29539;DHT22;16482;51.046;4.498;2022-07-26T12:12:26;26.80;47.20
29539;DHT22;16482;51.046;4.498;2022-07-26T12:15:01;26.70;47.20
29539;DHT22;16482;51.046;4.498;2022-07-26T12:17:28;26.70;47.30
29539;DHT22;16482;51.046;4.498;2022-07-26T12:19:54;26.70;47.20
29539;DHT22;16482;51.046;4.498;2022-07-26T12:22:21;26.70;47.70
29539;DHT22;16482;51.046;4.498;2022-07-26T12:27:28;26.70;46.80
29539;DHT22;16482;51.046;4.498;2022-07-26T12:30:13;26.80;46.60
29539;DHT22;16482;51.046;4.498;2022-07-26T12:32:43;26.70;46.70
29539;DHT22;16482;51.046;4.498;2022-07-26T12:35:10;26.70;46.80
29539;DHT22;16482;51.046;4.498;2022-07-26T12:40:13;26.70;46.80
29539;DHT22;16482;51.046;4.498;2022-07-26T12:45:17;26.80;46.70
29539;DHT22;16482;51.046;4.498;2022-07-26T12:47:45;26.80;46.70
29539;DHT22;16482;51.046;4.498;2022-07-26T12:50:13;26.80;46.70
29539;DHT22;16482;51.046;4.498;2022-07-26T12:52:40;26.90;46.70
29539;DHT22;16482;51.046;4.498;2022-07-26T12:55:08;26.90;46.80
29539;DHT22;16482;51.046;4.498;2022-07-26T12:57:36;26.80;47.30
29539;DHT22;16482;51.046;4.498;2022-07-26T13:00:03;26.80;47.60
29539;DHT22;16482;51.046;4.498;2022-07-26T13:02:29;26.80;47.50
29539;DHT22;16482;51.046;4.498;2022-07-26T13:04:55;26.90;47.50
29539;DHT22;16482;51.046;4.498;2022-07-26T13:07:21;26.80;47.50
29539;DHT22;16482;51.046;4.498;2022-07-26T13:09:47;26.90;47.60
29539;DHT22;16482;51.046;4.498;2022-07-26T13:12:14;26.90;47.60
29539;DHT22;16482;51.046;4.498;2022-07-26T13:14:42;27.00;47.60
29539;DHT22;16482;51.046;4.498;2022-07-26T13:17:16;27.00;47.70
29539;DHT22;16482;51.046;4.498;2022-07-26T13:19:42;26.90;47.60
29539;DHT22;16482;51.046;4.498;2022-07-26T13:22:11;27.00;47.70
29539;DHT22;16482;51.046;4.498;2022-07-26T13:24:39;26.90;47.80
29539;DHT22;16482;51.046;4.498;2022-07-26T13:27:17;27.00;47.80
29539;DHT22;16482;51.046;4.498;2022-07-26T13:29:43;27.00;47.80
29539;DHT22;16482;51.046;4.498;2022-07-26T13:32:12;26.90;47.90
29539;DHT22;16482;51.046;4.498;2022-07-26T13:34:40;26.90;48.00
29539;DHT22;16482;51.046;4.498;2022-07-26T13:37:13;26.90;48.10
29539;DHT22;16482;51.046;4.498;2022-07-26T13:39:47;26.90;48.20
29539;DHT22;16482;51.046;4.498;2022-07-26T13:42:13;26.90;48.20
29539;DHT22;16482;51.046;4.498;2022-07-26T13:44:44;26.90;48.30
29539;DHT22;16482;51.046;4.498;2022-07-26T13:47:12;26.90;48.30
29539;DHT22;16482;51.046;4.498;2022-07-26T13:49:41;26.90;48.90
29539;DHT22;16482;51.046;4.498;2022-07-26T13:52:10;26.90;48.40
29539;DHT22;16482;51.046;4.498;2022-07-26T13:54:38;26.90;48.40
29539;DHT22;16482;51.046;4.498;2022-07-26T13:57:11;26.90;48.50
29539;DHT22;16482;51.046;4.498;2022-07-26T13:59:40;26.90;48.50
29539;DHT22;16482;51.046;4.498;2022-07-26T14:02:12;26.90;48.60
29539;DHT22;16482;51.046;4.498;2022-07-26T14:04:47;26.90;48.70
29539;DHT22;16482;51.046;4.498;2022-07-26T14:07:15;26.90;48.70
29539;DHT22;16482;51.046;4.498;2022-07-26T14:09:41;26.90;48.80
29539;DHT22;16482;51.046;4.498;2022-07-26T14:12:15;26.90;48.90
29539;DHT22;16482;51.046;4.498;2022-07-26T14:14:44;26.90;48.90
29539;DHT22;16482;51.046;4.498;2022-07-26T14:17:18;26.90;49.00
29539;DHT22;16482;51.046;4.498;2022-07-26T14:19:44;26.90;49.00
29539;DHT22;16482;51.046;4.498;2022-07-26T14:22:13;26.90;49.00
29539;DHT22;16482;51.046;4.498;2022-07-26T14:24:42;26.80;49.10
29539;DHT22;16482;51.046;4.498;2022-07-26T14:27:08;26.80;49.10
29539;DHT22;16482;51.046;4.498;2022-07-26T14:29:33;26.80;49.20
29539;DHT22;16482;51.046;4.498;2022-07-26T14:32:01;26.80;49.30
29539;DHT22;16482;51.046;4.498;2022-07-26T14:34:26;26.70;49.30
29539;DHT22;16482;51.046;4.498;2022-07-26T14:36:52;26.70;49.40
29539;DHT22;16482;51.046;4.498;2022-07-26T14:39:18;26.70;49.40
29539;DHT22;16482;51.046;4.498;2022-07-26T14:41:44;26.70;49.30
29539;DHT22;16482;51.046;4.498;2022-07-26T14:44:10;26.70;49.40
29539;DHT22;16482;51.046;4.498;2022-07-26T14:46:36;26.70;49.80
29539;DHT22;16482;51.046;4.498;2022-07-26T14:49:01;26.70;49.10
29539;DHT22;16482;51.046;4.498;2022-07-26T14:51:27;26.80;49.20
29539;DHT22;16482;51.046;4.498;2022-07-26T14:53:56;26.70;49.20
29539;DHT22;16482;51.046;4.498;2022-07-26T14:56:22;26.70;49.20
29539;DHT22;16482;51.046;4.498;2022-07-26T14:58:57;26.70;49.30
29539;DHT22;16482;51.046;4.498;2022-07-26T15:01:25;26.70;49.30
29539;DHT22;16482;51.046;4.498;2022-07-26T15:03:54;26.70;49.40
29539;DHT22;16482;51.046;4.498;2022-07-26T15:06:25;26.70;49.30
29539;DHT22;16482;51.046;4.498;2022-07-26T15:08:54;26.70;49.40
29539;DHT22;16482;51.046;4.498;2022-07-26T15:11:29;26.70;49.50
29539;DHT22;16482;51.046;4.498;2022-07-26T15:13:55;26.70;49.50
29539;DHT22;16482;51.046;4.498;2022-07-26T15:16:28;26.70;49.40
29539;DHT22;16482;51.046;4.498;2022-07-26T15:18:54;26.70;49.50
29539;DHT22;16482;51.046;4.498;2022-07-26T15:21:23;26.70;49.40
29539;DHT22;16482;51.046;4.498;2022-07-26T15:23:52;26.70;49.50
29539;DHT22;16482;51.046;4.498;2022-07-26T15:26:23;26.70;49.70
29539;DHT22;16482;51.046;4.498;2022-07-26T15:28:56;26.70;49.80
29539;DHT22;16482;51.046;4.498;2022-07-26T15:31:25;26.60;49.90
29539;DHT22;16482;51.046;4.498;2022-07-26T15:33:54;26.60;49.90
29539;DHT22;16482;51.046;4.498;2022-07-26T15:36:27;26.60;50.10
29539;DHT22;16482;51.046;4.498;2022-07-26T15:38:55;26.60;50.20
29539;DHT22;16482;51.046;4.498;2022-07-26T15:41:24;26.60;50.30
29539;DHT22;16482;51.046;4.498;2022-07-26T15:43:57;26.60;50.40
29539;DHT22;16482;51.046;4.498;2022-07-26T15:46:26;26.60;50.50
29539;DHT22;16482;51.046;4.498;2022-07-26T15:48:54;26.60;50.60
29539;DHT22;16482;51.046;4.498;2022-07-26T15:51:25;26.60;50.70
29539;DHT22;16482;51.046;4.498;2022-07-26T15:53:54;26.60;50.70
29539;DHT22;16482;51.046;4.498;2022-07-26T15:56:25;26.60;50.90
29539;DHT22;16482;51.046;4.498;2022-07-26T15:58:54;26.60;50.90
29539;DHT22;16482;51.046;4.498;2022-07-26T16:01:27;26.60;50.80
29539;DHT22;16482;51.046;4.498;2022-07-26T16:03:56;26.60;50.80